sensor_id;sensor_type;location;lat;lon;timestamp;P1;durP1;ratioP1;P2;durP2;ratioP2
9661;SDS011;24982;52.344;12.990;2022-11-14T17:12:42;26.52;;;19.40;;
9661;SDS011;24982;52.344;12.990;2022-11-14T17:16:03;28.75;;;20.80;;
9661;SDS011;24982;52.344;12.990;2022-11-14T17:19:24;28.35;;;22.20;;
9661;SDS011;24982;52.344;12.990;2022-11-14T17:22:46;28.70;;;22.05;;
9661;SDS011;24982;52.344;12.990;2022-11-14T17:26:07;27.02;;;21.23;;
9661;SDS011;24982;52.344;12.990;2022-11-14T17:29:31;26.67;;;21.42;;
9661;SDS011;24982;52.344;12.990;2022-11-14T17:32:51;29.58;;;21.83;;
9661;SDS011;24982;52.344;12.990;2022-11-14T17:36:13;25.92;;;20.85;;
9661;SDS011;24982;52.344;12.990;2022-11-14T17:39:34;29.73;;;22.38;;
9661;SDS011;24982;52.344;12.990;2022-11-14T17:42:54;29.48;;;22.08;;
9661;SDS011;24982;52.344;12.990;2022-11-14T17:46:16;27.73;;;21.92;;
9661;SDS011;24982;52.344;12.990;2022-11-14T17:49:37;27.90;;;21.52;;
9661;SDS011;24982;52.344;12.990;2022-11-14T17:52:57;26.58;;;21.42;;
9661;SDS011;24982;52.344;12.990;2022-11-14T17:56:18;28.33;;;22.92;;
9661;SDS011;24982;52.344;12.990;2022-11-14T17:59:39;28.33;;;22.20;;
9661;SDS011;24982;52.344;12.990;2022-11-14T18:03:02;27.52;;;22.08;;
9661;SDS011;24982;52.344;12.990;2022-11-14T18:06:22;26.20;;;22.17;;
9661;SDS011;24982;52.344;12.990;2022-11-14T18:09:43;26.52;;;21.40;;
9661;SDS011;24982;52.344;12.990;2022-11-14T18:13:04;26.10;;;21.30;;
9661;SDS011;24982;52.344;12.990;2022-11-14T18:16:25;26.30;;;21.27;;
9661;SDS011;24982;52.344;12.990;2022-11-14T18:19:47;30.00;;;22.90;;
9661;SDS011;24982;52.344;12.990;2022-11-14T18:23:08;31.60;;;24.23;;
9661;SDS011;24982;52.344;12.990;2022-11-14T18:26:29;29.92;;;23.80;;
9661;SDS011;24982;52.344;12.990;2022-11-14T18:29:50;28.90;;;22.70;;
9661;SDS011;24982;52.344;12.990;2022-11-14T18:33:10;27.48;;;21.30;;
9661;SDS011;24982;52.344;12.990;2022-11-14T18:36:32;27.48;;;21.75;;
9661;SDS011;24982;52.344;12.990;2022-11-14T18:39:53;32.08;;;23.05;;
9661;SDS011;24982;52.344;12.990;2022-11-14T18:43:14;27.60;;;22.48;;
9661;SDS011;24982;52.344;12.990;2022-11-14T18:46:34;26.45;;;21.65;;
9661;SDS011;24982;52.344;12.990;2022-11-14T18:49:56;28.17;;;21.85;;
9661;SDS011;24982;52.344;12.990;2022-11-14T18:53:19;28.55;;;22.60;;
9661;SDS011;24982;52.344;12.990;2022-11-14T18:56:39;27.15;;;21.92;;
9661;SDS011;24982;52.344;12.990;2022-11-14T19:00:00;27.75;;;21.88;;
9661;SDS011;24982;52.344;12.990;2022-11-14T19:03:22;27.42;;;21.55;;
9661;SDS011;24982;52.344;12.990;2022-11-14T19:06:42;27.15;;;21.77;;
9661;SDS011;24982;52.344;12.990;2022-11-14T19:10:05;29.13;;;22.55;;
9661;SDS011;24982;52.344;12.990;2022-11-14T19:13:26;33.10;;;23.98;;
9661;SDS011;24982;52.344;12.990;2022-11-14T19:16:47;27.48;;;22.70;;
9661;SDS011;24982;52.344;12.990;2022-11-14T19:20:09;29.98;;;23.48;;
9661;SDS011;24982;52.344;12.990;2022-11-14T19:23:30;29.98;;;22.48;;
9661;SDS011;24982;52.344;12.990;2022-11-14T19:26:53;30.05;;;22.80;;
9661;SDS011;24982;52.344;12.990;2022-11-14T19:30:15;27.80;;;22.70;;
9661;SDS011;24982;52.344;12.990;2022-11-14T19:33:37;32.30;;;24.23;;
9661;SDS011;24982;52.344;12.990;2022-11-14T19:36:58;29.00;;;22.83;;
9661;SDS011;24982;52.344;12.990;2022-11-14T19:40:18;29.75;;;23.25;;
9661;SDS011;24982;52.344;12.990;2022-11-14T19:43:40;30.33;;;24.45;;
9661;SDS011;24982;52.344;12.990;2022-11-14T19:47:02;30.17;;;23.50;;
9661;SDS011;24982;52.344;12.990;2022-11-14T19:50:23;29.90;;;23.50;;
9661;SDS011;24982;52.344;12.990;2022-11-14T19:53:44;27.08;;;21.92;;
9661;SDS011;24982;52.344;12.990;2022-11-14T19:57:05;28.40;;;22.60;;
9661;SDS011;24982;52.344;12.990;2022-11-14T20:00:27;29.13;;;22.52;;
9661;SDS011;24982;52.344;12.990;2022-11-14T20:03:51;34.85;;;24.20;;
9661;SDS011;24982;52.344;12.990;2022-11-14T20:07:13;31.13;;;23.85;;
9661;SDS011;24982;52.344;12.990;2022-11-14T20:10:33;30.00;;;23.40;;
9661;SDS011;24982;52.344;12.990;2022-11-14T20:14:05;29.23;;;22.60;;
9661;SDS011;24982;52.344;12.990;2022-11-14T20:17:27;29.75;;;23.17;;
9661;SDS011;24982;52.344;12.990;2022-11-14T20:20:47;29.95;;;23.20;;
9661;SDS011;24982;52.344;12.990;2022-11-14T20:24:09;33.67;;;24.42;;
9661;SDS011;24982;52.344;12.990;2022-11-14T20:27:30;32.15;;;25.23;;
9661;SDS011;24982;52.344;12.990;2022-11-14T20:30:51;32.25;;;24.95;;
9661;SDS011;24982;52.344;12.990;2022-11-14T20:34:13;31.98;;;25.50;;
9661;SDS011;24982;52.344;12.990;2022-11-14T20:37:33;31.77;;;24.73;;
9661;SDS011;24982;52.344;12.990;2022-11-14T20:40:54;32.53;;;25.02;;
9661;SDS011;24982;52.344;12.990;2022-11-14T20:44:15;34.20;;;25.58;;
9661;SDS011;24982;52.344;12.990;2022-11-14T20:47:37;32.75;;;25.60;;
9661;SDS011;24982;52.344;12.990;2022-11-14T20:51:02;36.42;;;27.00;;
9661;SDS011;24982;52.344;12.990;2022-11-14T20:54:23;34.42;;;26.65;;
9661;SDS011;24982;52.344;12.990;2022-11-14T20:57:44;32.13;;;24.70;;
9661;SDS011;24982;52.344;12.990;2022-11-14T21:01:05;40.97;;;26.73;;
9661;SDS011;24982;52.344;12.990;2022-11-14T21:04:27;33.88;;;25.80;;
9661;SDS011;24982;52.344;12.990;2022-11-14T21:07:49;36.33;;;27.05;;
9661;SDS011;24982;52.344;12.990;2022-11-14T21:11:10;36.17;;;27.48;;
9661;SDS011;24982;52.344;12.990;2022-11-14T21:14:33;33.13;;;26.52;;
9661;SDS011;24982;52.344;12.990;2022-11-14T21:17:54;33.42;;;25.17;;
9661;SDS011;24982;52.344;12.990;2022-11-14T21:21:15;36.63;;;25.83;;
9661;SDS011;24982;52.344;12.990;2022-11-14T21:24:42;38.03;;;27.92;;
9661;SDS011;24982;52.344;12.990;2022-11-14T21:28:02;37.72;;;28.33;;
9661;SDS011;24982;52.344;12.990;2022-11-14T21:31:23;35.35;;;27.73;;
9661;SDS011;24982;52.344;12.990;2022-11-14T21:34:45;38.20;;;28.63;;
9661;SDS011;24982;52.344;12.990;2022-11-14T21:38:05;36.50;;;27.33;;
9661;SDS011;24982;52.344;12.990;2022-11-14T21:41:28;35.53;;;27.40;;
9661;SDS011;24982;52.344;12.990;2022-11-14T21:44:50;41.95;;;28.90;;
9661;SDS011;24982;52.344;12.990;2022-11-14T21:48:11;37.33;;;29.08;;
9661;SDS011;24982;52.344;12.990;2022-11-14T21:51:32;36.95;;;28.30;;
9661;SDS011;24982;52.344;12.990;2022-11-14T21:54:52;37.50;;;28.20;;
9661;SDS011;24982;52.344;12.990;2022-11-14T21:58:14;36.25;;;27.88;;
9661;SDS011;24982;52.344;12.990;2022-11-14T22:01:35;36.45;;;29.13;;
9661;SDS011;24982;52.344;12.990;2022-11-14T22:05:13;37.65;;;27.80;;
9661;SDS011;24982;52.344;12.990;2022-11-14T22:08:33;37.85;;;29.00;;
9661;SDS011;24982;52.344;12.990;2022-11-14T22:11:54;39.95;;;30.02;;
9661;SDS011;24982;52.344;12.990;2022-11-14T22:15:17;38.92;;;28.95;;
9661;SDS011;24982;52.344;12.990;2022-11-14T22:18:38;35.40;;;28.10;;
9661;SDS011;24982;52.344;12.990;2022-11-14T22:21:58;39.42;;;27.83;;
9661;SDS011;24982;52.344;12.990;2022-11-14T22:25:19;35.88;;;27.73;;
9661;SDS011;24982;52.344;12.990;2022-11-14T22:28:39;36.63;;;28.25;;
9661;SDS011;24982;52.344;12.990;2022-11-14T22:32:02;36.63;;;28.23;;
9661;SDS011;24982;52.344;12.990;2022-11-14T22:35:22;36.85;;;28.48;;
9661;SDS011;24982;52.344;12.990;2022-11-14T22:38:43;37.72;;;28.55;;
9661;SDS011;24982;52.344;12.990;2022-11-14T22:42:04;40.20;;;30.02;;
9661;SDS011;24982;52.344;12.990;2022-11-14T22:45:26;39.03;;;28.95;;
9661;SDS011;24982;52.344;12.990;2022-11-14T22:48:48;42.47;;;30.13;;
9661;SDS011;24982;52.344;12.990;2022-11-14T22:52:09;40.65;;;28.65;;
9661;SDS011;24982;52.344;12.990;2022-11-14T22:55:30;38.55;;;29.38;;
9661;SDS011;24982;52.344;12.990;2022-11-14T22:58:50;39.63;;;29.92;;
9661;SDS011;24982;52.344;12.990;2022-11-14T23:02:11;40.08;;;29.92;;
9661;SDS011;24982;52.344;12.990;2022-11-14T23:05:34;38.95;;;29.27;;
9661;SDS011;24982;52.344;12.990;2022-11-14T23:08:55;38.63;;;29.02;;
9661;SDS011;24982;52.344;12.990;2022-11-14T23:12:16;34.83;;;27.02;;
9661;SDS011;24982;52.344;12.990;2022-11-14T23:15:36;41.97;;;29.73;;
9661;SDS011;24982;52.344;12.990;2022-11-14T23:18:59;40.22;;;29.65;;
9661;SDS011;24982;52.344;12.990;2022-11-14T23:22:22;41.20;;;29.67;;
9661;SDS011;24982;52.344;12.990;2022-11-14T23:25:42;37.55;;;28.83;;
9661;SDS011;24982;52.344;12.990;2022-11-14T23:29:03;40.47;;;30.33;;
9661;SDS011;24982;52.344;12.990;2022-11-14T23:32:25;39.80;;;29.65;;
9661;SDS011;24982;52.344;12.990;2022-11-14T23:35:46;40.70;;;29.50;;
9661;SDS011;24982;52.344;12.990;2022-11-14T23:39:08;41.45;;;31.25;;
9661;SDS011;24982;52.344;12.990;2022-11-14T23:42:28;41.30;;;29.63;;
9661;SDS011;24982;52.344;12.990;2022-11-14T23:45:48;44.13;;;31.02;;
9661;SDS011;24982;52.344;12.990;2022-11-14T23:49:09;37.63;;;29.38;;
9661;SDS011;24982;52.344;12.990;2022-11-14T23:52:30;40.75;;;30.40;;
9661;SDS011;24982;52.344;12.990;2022-11-14T23:55:52;39.33;;;30.30;;
9661;SDS011;24982;52.344;12.990;2022-11-14T23:59:13;43.38;;;32.22;;
